createdAt,value
2022-08-11T00:00:12.489Z,69.96
2022-08-11T00:01:12.460Z,69.77
2022-08-11T00:02:15.054Z,69.57
2022-08-11T00:03:12.492Z,69.57
2022-08-11T00:04:12.409Z,70.15
2022-08-11T00:05:12.392Z,69.57
2022-08-11T00:06:12.372Z,69.38
2022-08-11T00:07:12.356Z,69.48
2022-08-11T00:08:12.339Z,70.06
2022-08-11T00:09:12.321Z,70.83
2022-08-11T00:10:12.303Z,69.96
2022-08-11T00:11:12.287Z,69.57
2022-08-11T00:12:12.267Z,69.38
2022-08-11T00:13:13.297Z,69.77
2022-08-11T00:14:12.231Z,69.77
2022-08-11T00:15:12.224Z,69.48
2022-08-11T00:16:12.196Z,70.15
2022-08-11T00:17:12.184Z,70.83
2022-08-11T00:18:12.163Z,71.02
2022-08-11T00:19:12.146Z,69.96
2022-08-11T00:20:16.211Z,69.77
2022-08-11T00:21:12.109Z,69.96
2022-08-11T00:22:12.091Z,69.77
2022-08-11T00:23:12.074Z,69.87
2022-08-11T00:24:12.056Z,70.15
2022-08-11T00:25:12.154Z,69.96
2022-08-11T00:26:12.021Z,69.87
2022-08-11T00:27:14.310Z,69.38
2022-08-11T00:28:11.989Z,69.45
2022-08-11T00:29:11.972Z,69.87
2022-08-11T00:30:11.955Z,69.45
2022-08-11T00:31:11.933Z,69.83
2022-08-11T00:32:11.914Z,70.02
2022-08-11T00:33:11.895Z,70.12
2022-08-11T00:34:11.879Z,69.93
2022-08-11T00:35:53.645Z,70.02
2022-08-11T00:36:11.843Z,70.02
2022-08-11T00:37:11.825Z,70.70
2022-08-11T00:38:11.807Z,70.70
2022-08-11T00:39:11.842Z,70.70
2022-08-11T00:40:11.771Z,70.60
2022-08-11T00:41:11.756Z,70.79
2022-08-11T00:42:11.737Z,71.08
2022-08-11T00:43:11.722Z,70.89
2022-08-11T00:44:11.700Z,70.79
2022-08-11T00:45:11.683Z,70.98
2022-08-11T00:46:11.673Z,70.98
2022-08-11T00:47:11.649Z,70.79
2022-08-11T00:48:11.630Z,70.89
2022-08-11T00:49:12.028Z,70.89
2022-08-11T00:50:11.622Z,71.08
2022-08-11T00:51:11.598Z,70.98
2022-08-11T00:52:11.559Z,71.08
2022-08-11T00:53:11.541Z,71.18
2022-08-11T00:54:11.523Z,71.47
2022-08-11T00:55:11.505Z,71.66
2022-08-11T00:56:11.488Z,71.08
2022-08-11T00:57:36.914Z,71.37
2022-08-11T00:58:11.450Z,70.98
2022-08-11T00:59:21.111Z,71.85
2022-08-11T01:00:11.416Z,71.43
2022-08-11T01:01:11.580Z,71.62
2022-08-11T01:02:11.380Z,71.72
2022-08-11T01:03:11.363Z,72.39
2022-08-11T01:04:11.345Z,71.95
2022-08-11T01:05:11.327Z,72.33
2022-08-11T01:06:11.309Z,71.85
2022-08-11T01:07:11.293Z,72.05
2022-08-11T01:08:11.272Z,71.66
2022-08-11T01:09:22.526Z,71.56
2022-08-11T01:10:11.236Z,72.24
2022-08-11T01:11:11.219Z,71.56
2022-08-11T01:12:11.202Z,71.56
2022-08-11T01:13:11.183Z,72.05
2022-08-11T01:14:11.166Z,71.56
2022-08-11T01:15:11.147Z,72.33
2022-08-11T01:16:11.128Z,72.33
2022-08-11T01:17:11.112Z,72.24
2022-08-11T01:18:11.098Z,71.85
2022-08-11T01:19:11.079Z,71.85
2022-08-11T01:20:46.775Z,72.33
2022-08-11T01:21:11.038Z,72.14
2022-08-11T01:22:11.025Z,72.24
2022-08-11T01:23:12.512Z,72.14
2022-08-11T01:24:10.997Z,72.24
2022-08-11T01:25:10.969Z,73.01
2022-08-11T01:26:10.951Z,72.53
2022-08-11T01:27:19.193Z,72.91
2022-08-11T01:28:10.914Z,72.72
2022-08-11T01:29:10.894Z,72.81
2022-08-11T01:30:10.879Z,72.91
2022-08-11T01:31:10.873Z,73.07
2022-08-11T01:32:10.847Z,73.07
2022-08-11T01:33:10.828Z,73.26
2022-08-11T01:34:10.807Z,73.16
2022-08-11T01:35:10.788Z,73.84
2022-08-11T01:36:10.768Z,73.84
2022-08-11T01:37:10.752Z,73.84
2022-08-11T01:38:10.731Z,73.65
2022-08-11T01:39:10.772Z,73.36
2022-08-11T01:40:10.700Z,73.46
2022-08-11T01:41:10.693Z,73.46
2022-08-11T01:42:10.659Z,73.84
2022-08-11T01:43:10.642Z,73.46
2022-08-11T01:44:12.668Z,73.84
2022-08-11T01:45:10.613Z,73.65
2022-08-11T01:46:10.587Z,73.94
2022-08-11T01:47:10.571Z,74.13
2022-08-11T01:48:10.549Z,74.13
2022-08-11T01:50:06.693Z,74.22
2022-08-11T01:50:10.846Z,74.32
2022-08-11T01:51:16.956Z,74.41
2022-08-11T01:52:10.478Z,74.41
2022-08-11T01:53:10.461Z,74.38
2022-08-11T01:54:10.443Z,75.05
2022-08-11T01:55:10.424Z,74.29
2022-08-11T01:56:10.404Z,74.61
2022-08-11T01:57:10.395Z,74.09
2022-08-11T01:58:10.368Z,74.48
2022-08-11T01:59:10.351Z,73.99
2022-08-11T02:00:10.331Z,74.76
2022-08-11T02:01:10.371Z,73.80
2022-08-11T02:02:10.298Z,74.38
2022-08-11T02:03:10.278Z,74.57
2022-08-11T02:04:10.263Z,75.05
2022-08-11T02:05:10.242Z,74.96
2022-08-11T02:06:10.222Z,74.76
2022-08-11T02:07:10.214Z,74.92
2022-08-11T02:08:10.193Z,75.21
2022-08-11T02:09:10.168Z,75.84
2022-08-11T02:10:10.151Z,77.00
2022-08-11T02:11:10.133Z,76.81
2022-08-11T02:12:10.117Z,77.76
2022-08-11T02:13:10.093Z,78.30
2022-08-11T02:14:10.076Z,78.78
2022-08-11T02:15:10.057Z,79.84
2022-08-11T02:16:10.036Z,80.22
2022-08-11T02:17:10.020Z,80.22
2022-08-11T02:18:09.999Z,80.71
2022-08-11T02:19:09.986Z,79.94
2022-08-11T02:20:09.966Z,79.84
2022-08-11T02:21:09.945Z,80.13
2022-08-11T02:22:09.929Z,79.75
2022-08-11T02:23:09.909Z,79.98
2022-08-11T02:24:09.890Z,78.69
2022-08-11T02:25:09.874Z,79.21
2022-08-11T02:26:09.853Z,78.83
2022-08-11T02:27:09.835Z,79.07
2022-08-11T02:28:09.815Z,79.07
2022-08-11T02:29:09.797Z,79.94
2022-08-11T02:30:09.783Z,80.47
2022-08-11T02:31:09.762Z,81.43
2022-08-11T02:32:25.126Z,82.35
2022-08-11T02:33:09.722Z,82.93
2022-08-11T02:34:09.706Z,82.84
2022-08-11T02:35:09.687Z,83.41
2022-08-11T02:36:09.667Z,83.60
2022-08-11T02:37:09.649Z,83.60
2022-08-11T02:38:09.631Z,83.60
2022-08-11T02:39:09.685Z,83.31
2022-08-11T02:40:09.594Z,83.98
2022-08-11T02:41:09.574Z,82.93
2022-08-11T02:42:32.604Z,83.03
2022-08-11T02:43:09.540Z,83.03
2022-08-11T02:44:09.521Z,82.84
2022-08-11T02:45:09.500Z,82.54
2022-08-11T02:46:09.481Z,82.64
2022-08-11T02:47:09.461Z,82.78
2022-08-11T02:48:09.441Z,82.68
2022-08-11T02:49:09.423Z,82.97
2022-08-11T02:50:09.404Z,82.87
2022-08-11T02:51:09.390Z,82.20
2022-08-11T02:52:09.369Z,81.34
2022-08-11T02:53:09.353Z,81.82
2022-08-11T02:54:09.329Z,82.40
2022-08-11T02:55:09.312Z,82.10
2022-08-11T02:56:09.289Z,82.30
2022-08-11T02:57:11.251Z,82.20
2022-08-11T02:58:09.253Z,82.87
2022-08-11T02:59:09.237Z,82.87
2022-08-11T03:00:09.219Z,82.78
2022-08-11T03:01:09.198Z,82.97
2022-08-11T03:02:09.226Z,83.16
2022-08-11T03:03:09.161Z,82.78
2022-08-11T03:04:09.140Z,83.16
2022-08-11T03:05:09.130Z,82.97
2022-08-11T03:06:09.111Z,82.87
2022-08-11T03:07:28.831Z,83.36
2022-08-11T03:08:09.057Z,82.97
2022-08-11T03:09:09.046Z,82.43
2022-08-11T03:10:09.025Z,81.86
2022-08-11T03:11:09.009Z,81.76
2022-08-11T03:12:08.992Z,81.43
2022-08-11T03:13:08.970Z,81.15
2022-08-11T03:14:08.951Z,82.30
2022-08-11T03:15:08.935Z,82.40
2022-08-11T03:16:08.918Z,82.59
2022-08-11T03:17:08.896Z,82.10
2022-08-11T03:18:08.883Z,82.10
2022-08-11T03:19:08.858Z,82.30
2022-08-11T03:20:08.840Z,82.10
2022-08-11T03:21:08.819Z,81.63
2022-08-11T03:22:08.800Z,82.01
2022-08-11T03:23:19.978Z,82.20
2022-08-11T03:24:08.763Z,82.40
2022-08-11T03:25:12.759Z,82.68
2022-08-11T03:26:08.727Z,82.78
2022-08-11T03:27:08.705Z,82.30
2022-08-11T03:28:08.686Z,82.40
2022-08-11T03:29:08.667Z,82.05
2022-08-11T03:30:08.648Z,81.96
2022-08-11T03:31:08.632Z,82.43
2022-08-11T03:32:08.614Z,82.24
2022-08-11T03:33:08.592Z,81.67
2022-08-11T03:34:08.572Z,81.48
2022-08-11T03:35:08.556Z,81.38
2022-08-11T03:36:08.539Z,81.19
2022-08-11T03:37:17.550Z,81.38
2022-08-11T03:38:08.497Z,81.38
2022-08-11T03:39:08.540Z,81.09
2022-08-11T03:40:08.507Z,81.48
2022-08-11T03:42:01.203Z,81.28
2022-08-11T03:42:10.258Z,81.86
2022-08-11T03:43:08.405Z,81.96
2022-08-11T03:44:08.382Z,81.76
2022-08-11T03:45:08.364Z,81.19
2022-08-11T03:46:08.347Z,81.48
2022-08-11T03:47:08.328Z,81.38
2022-08-11T03:48:08.315Z,81.28
2022-08-11T03:49:08.288Z,81.38
2022-08-11T03:50:08.277Z,80.61
2022-08-11T03:51:08.250Z,80.80
2022-08-11T03:52:08.231Z,80.90
2022-08-11T03:53:08.216Z,81.48
2022-08-11T03:54:08.191Z,80.51
2022-08-11T03:55:08.178Z,80.42
2022-08-11T03:56:08.155Z,80.13
2022-08-11T03:57:08.135Z,80.42
2022-08-11T03:58:08.116Z,80.80
2022-08-11T03:59:08.097Z,80.61
2022-08-11T04:00:08.079Z,80.80
2022-08-11T04:01:08.223Z,79.94
2022-08-11T04:02:08.039Z,80.61
2022-08-11T04:03:08.023Z,79.94
2022-08-11T04:04:08.006Z,80.13
2022-08-11T04:05:07.986Z,79.94
2022-08-11T04:06:07.964Z,79.65
2022-08-11T04:07:07.951Z,80.04
2022-08-11T04:08:07.927Z,80.04
2022-08-11T04:09:07.909Z,80.51
2022-08-11T04:10:07.892Z,80.32
2022-08-11T04:11:07.881Z,80.71
2022-08-11T04:12:07.854Z,80.61
2022-08-11T04:13:07.834Z,80.22
2022-08-11T04:14:07.815Z,80.13
2022-08-11T04:15:07.794Z,80.04
2022-08-11T04:16:11.312Z,79.94
2022-08-11T04:17:07.761Z,80.71
2022-08-11T04:18:07.740Z,80.80
2022-08-11T04:19:07.720Z,80.80
2022-08-11T04:20:07.701Z,80.04
2022-08-11T04:21:07.681Z,79.65
2022-08-11T04:22:07.661Z,80.13
2022-08-11T04:23:07.642Z,79.84
2022-08-11T04:24:36.903Z,80.13
2022-08-11T04:25:07.607Z,80.22
2022-08-11T04:26:16.203Z,80.61
2022-08-11T04:27:08.200Z,80.22
2022-08-11T04:28:07.551Z,80.22
2022-08-11T04:29:09.496Z,80.04
2022-08-11T04:30:08.923Z,79.69
2022-08-11T04:31:07.490Z,79.94
2022-08-11T04:32:07.473Z,80.80
2022-08-11T04:33:07.453Z,80.80
2022-08-11T04:34:07.435Z,80.99
2022-08-11T04:35:07.414Z,81.09
2022-08-11T04:36:07.398Z,81.09
2022-08-11T04:37:07.376Z,80.90
2022-08-11T04:38:07.358Z,80.90
2022-08-11T04:39:07.360Z,80.71
2022-08-11T04:40:07.327Z,81.19
2022-08-11T04:41:07.309Z,81.67
2022-08-11T04:42:07.283Z,81.19
2022-08-11T04:43:07.265Z,81.76
2022-08-11T04:44:07.249Z,81.76
2022-08-11T04:45:07.226Z,81.28
2022-08-11T04:46:07.209Z,81.09
2022-08-11T04:47:07.187Z,81.38
2022-08-11T04:48:07.170Z,80.90
2022-08-11T04:49:07.154Z,81.28
2022-08-11T04:50:07.131Z,81.67
2022-08-11T04:51:16.328Z,81.28
2022-08-11T04:52:07.092Z,81.19
2022-08-11T04:53:07.070Z,81.38
2022-08-11T04:54:07.055Z,81.38
2022-08-11T04:55:07.034Z,81.38
2022-08-11T04:56:07.020Z,81.67
2022-08-11T04:57:06.999Z,80.99
2022-08-11T04:58:06.979Z,80.55
2022-08-11T04:59:06.963Z,80.80
2022-08-11T05:00:06.940Z,80.55
2022-08-11T05:01:06.996Z,80.99
2022-08-11T05:02:06.950Z,80.71
2022-08-11T05:03:06.884Z,81.38
2022-08-11T05:04:06.864Z,81.28
2022-08-11T05:05:06.843Z,81.19
2022-08-11T05:06:06.826Z,81.09
2022-08-11T05:07:06.811Z,81.71
2022-08-11T05:08:06.790Z,81.23
2022-08-11T05:09:06.768Z,81.71
2022-08-11T05:10:06.751Z,80.80
2022-08-11T05:11:06.743Z,81.13
2022-08-11T05:12:06.712Z,81.13
2022-08-11T05:13:06.701Z,80.65
2022-08-11T05:14:06.675Z,81.04
2022-08-11T05:15:06.653Z,81.13
2022-08-11T05:16:06.637Z,81.04
2022-08-11T05:17:06.617Z,81.04
2022-08-11T05:18:06.598Z,80.84
2022-08-11T05:19:06.577Z,80.27
2022-08-11T05:20:06.562Z,80.17
2022-08-11T05:21:06.541Z,80.84
2022-08-11T05:22:06.525Z,80.84
2022-08-11T05:23:06.503Z,81.52
2022-08-11T05:24:06.491Z,81.52
2022-08-11T05:25:06.463Z,81.52
2022-08-11T05:26:43.828Z,81.52
2022-08-11T05:27:11.369Z,80.55
2022-08-11T05:28:06.407Z,81.52
2022-08-11T05:29:20.006Z,81.13
2022-08-11T05:30:06.374Z,80.65
2022-08-11T05:31:06.354Z,80.65
2022-08-11T05:32:06.336Z,80.27
2022-08-11T05:33:06.319Z,79.79
2022-08-11T05:34:06.296Z,79.40
2022-08-11T05:35:06.275Z,79.21
2022-08-11T05:36:06.258Z,79.21
2022-08-11T05:37:25.821Z,79.11
2022-08-11T05:38:06.224Z,78.63
2022-08-11T05:39:06.199Z,78.96
2022-08-11T05:40:06.281Z,79.25
2022-08-11T05:41:06.160Z,79.44
2022-08-11T05:42:06.152Z,78.48
2022-08-11T05:43:06.185Z,78.09
2022-08-11T05:44:21.113Z,77.81
2022-08-11T05:45:15.209Z,77.23
2022-08-11T05:46:09.028Z,77.23
2022-08-11T05:47:06.049Z,77.23
2022-08-11T05:48:06.036Z,76.65
2022-08-11T05:49:06.015Z,76.65
2022-08-11T05:50:05.994Z,76.78
2022-08-11T05:51:10.366Z,76.40
2022-08-11T05:52:12.822Z,76.46
2022-08-11T05:53:09.345Z,76.78
2022-08-11T05:54:05.919Z,76.21
2022-08-11T05:55:06.979Z,76.01
2022-08-11T05:56:05.881Z,76.11
2022-08-11T05:57:05.865Z,75.44
2022-08-11T05:58:05.843Z,76.01
2022-08-11T05:59:05.822Z,76.40
2022-08-11T06:00:05.809Z,76.59
2022-08-11T06:01:05.811Z,75.34
2022-08-11T06:02:05.910Z,74.96
2022-08-11T06:03:05.748Z,75.24
2022-08-11T06:04:05.732Z,75.15
2022-08-11T06:05:05.712Z,74.86
2022-08-11T06:06:05.699Z,74.86
2022-08-11T06:07:05.680Z,74.86
2022-08-11T06:08:05.661Z,75.05
2022-08-11T06:09:05.635Z,74.90
2022-08-11T06:10:05.619Z,74.51
2022-08-11T06:11:05.601Z,74.51
2022-08-11T06:12:05.594Z,75.09
2022-08-11T06:13:05.561Z,74.71
2022-08-11T06:14:05.545Z,73.65
2022-08-11T06:15:05.528Z,73.74
2022-08-11T06:16:07.114Z,73.74
2022-08-11T06:17:05.490Z,73.55
2022-08-11T06:18:05.473Z,73.94
2022-08-11T06:19:05.450Z,73.36
2022-08-11T06:20:07.176Z,73.36
2022-08-11T06:21:05.414Z,73.16
2022-08-11T06:22:05.421Z,72.88
2022-08-11T06:23:05.383Z,73.55
2022-08-11T06:24:05.377Z,73.10
2022-08-11T06:25:05.347Z,72.81
2022-08-11T06:26:05.339Z,72.24
2022-08-11T06:27:13.728Z,72.43
2022-08-11T06:28:05.288Z,72.53
2022-08-11T06:29:05.264Z,72.63
2022-08-11T06:30:05.247Z,72.63
2022-08-11T06:31:05.226Z,72.24
2022-08-11T06:32:05.215Z,71.66
2022-08-11T06:33:05.210Z,72.33
2022-08-11T06:34:05.174Z,72.14
2022-08-11T06:35:05.153Z,71.85
2022-08-11T06:36:05.138Z,71.37
2022-08-11T06:37:05.144Z,71.12
2022-08-11T06:38:05.101Z,70.73
2022-08-11T06:39:05.081Z,71.22
2022-08-11T06:40:05.063Z,70.54
2022-08-11T06:41:05.044Z,70.83
2022-08-11T06:42:05.028Z,70.15
2022-08-11T06:43:05.007Z,71.02
2022-08-11T06:44:05.600Z,70.83
2022-08-11T06:45:04.981Z,70.73
2022-08-11T06:46:04.954Z,70.83
2022-08-11T06:47:04.934Z,70.73
2022-08-11T06:48:04.917Z,70.35
2022-08-11T06:49:04.897Z,70.09
2022-08-11T06:50:04.884Z,70.00
2022-08-11T06:51:04.863Z,69.90
2022-08-11T06:52:04.924Z,69.03
2022-08-11T06:53:04.827Z,68.55
2022-08-11T06:54:05.807Z,69.23
2022-08-11T06:55:04.788Z,68.93
2022-08-11T06:56:04.774Z,68.65
2022-08-11T06:58:04.785Z,68.65
2022-08-11T06:59:04.713Z,68.55
2022-08-11T07:00:04.706Z,68.19
2022-08-11T07:01:04.765Z,68.01
2022-08-11T07:02:04.670Z,68.19
2022-08-11T07:03:04.640Z,67.91
2022-08-11T07:04:04.624Z,67.62
2022-08-11T07:05:04.620Z,67.14
2022-08-11T07:06:04.589Z,67.33
2022-08-11T07:07:04.569Z,66.85
2022-08-11T07:08:34.273Z,67.43
2022-08-11T07:09:04.530Z,67.23
2022-08-11T07:10:04.523Z,67.46
2022-08-11T07:11:04.493Z,66.88
2022-08-11T07:12:04.482Z,67.27
2022-08-11T07:13:04.469Z,66.20
2022-08-11T07:14:04.447Z,66.20
2022-08-11T07:15:04.423Z,66.40
2022-08-11T07:16:11.386Z,65.24
2022-08-11T07:17:04.386Z,65.24
2022-08-11T07:18:04.373Z,64.89
2022-08-11T07:19:04.351Z,65.34
2022-08-11T07:20:04.334Z,65.37
2022-08-11T07:21:04.315Z,64.56
2022-08-11T07:22:04.402Z,65.08
2022-08-11T07:23:04.283Z,64.59
2022-08-11T07:24:04.261Z,64.59
2022-08-11T07:25:04.250Z,64.40
2022-08-11T07:26:04.231Z,64.69
2022-08-11T07:27:04.209Z,64.89
2022-08-11T07:28:04.196Z,63.82
2022-08-11T07:29:04.172Z,63.28
2022-08-11T07:30:04.154Z,62.98
2022-08-11T07:31:04.137Z,63.18
2022-08-11T07:32:04.118Z,63.08
2022-08-11T07:33:04.103Z,62.60
2022-08-11T07:34:06.463Z,62.98
2022-08-11T07:35:04.063Z,62.50
2022-08-11T07:36:04.049Z,62.98
2022-08-11T07:37:04.035Z,63.11
2022-08-11T07:38:05.662Z,62.24
2022-08-11T07:39:03.993Z,62.92
2022-08-11T07:40:03.986Z,62.63
2022-08-11T07:41:03.956Z,62.34
2022-08-11T07:42:03.940Z,61.08
2022-08-11T07:43:03.926Z,61.27
2022-08-11T07:44:03.909Z,61.76
2022-08-11T07:45:03.887Z,61.50
2022-08-11T07:46:03.869Z,61.89
2022-08-11T07:47:03.853Z,61.89
2022-08-11T07:48:03.836Z,62.08
2022-08-11T07:49:03.865Z,62.18
2022-08-11T07:50:03.802Z,61.11
2022-08-11T07:51:03.791Z,60.24
2022-08-11T07:52:03.765Z,60.08
2022-08-11T07:53:03.749Z,61.24
2022-08-11T07:54:07.731Z,59.79
2022-08-11T07:55:03.713Z,60.17
2022-08-11T07:56:03.698Z,59.89
2022-08-11T07:57:09.120Z,59.11
2022-08-11T07:58:16.663Z,58.85
2022-08-11T07:59:08.248Z,59.63
2022-08-11T08:00:05.074Z,59.05
2022-08-11T08:01:03.709Z,58.27
2022-08-11T08:02:03.734Z,58.37
2022-08-11T08:03:03.575Z,58.56
2022-08-11T08:04:03.562Z,58.85
2022-08-11T08:05:03.542Z,59.23
2022-08-11T08:06:03.527Z,58.95
2022-08-11T08:07:03.514Z,59.07
2022-08-11T08:08:03.498Z,59.17
2022-08-11T08:09:03.475Z,58.11
2022-08-11T08:10:03.466Z,59.07
2022-08-11T08:11:03.454Z,57.53
2022-08-11T08:12:03.433Z,57.71
2022-08-11T08:13:03.409Z,57.53
2022-08-11T08:14:03.402Z,56.26
2022-08-11T08:15:03.376Z,56.26
2022-08-11T08:16:03.372Z,56.65
2022-08-11T08:17:03.352Z,56.65
2022-08-11T08:18:20.921Z,57.07
2022-08-11T08:19:03.309Z,56.39
2022-08-11T08:20:03.295Z,56.10
2022-08-11T08:21:03.281Z,56.10
2022-08-11T08:22:37.433Z,56.20
2022-08-11T08:23:03.243Z,57.09
2022-08-11T08:24:03.229Z,55.64
2022-08-11T08:25:03.215Z,55.74
2022-08-11T08:26:03.200Z,55.16
2022-08-11T08:27:03.187Z,55.74
2022-08-11T08:28:03.165Z,55.64
2022-08-11T08:29:03.151Z,56.13
2022-08-11T08:30:03.130Z,56.81
2022-08-11T08:31:03.114Z,56.61
2022-08-11T08:32:03.099Z,54.99
2022-08-11T08:33:03.082Z,55.47
2022-08-11T08:34:03.068Z,56.15
2022-08-11T08:35:03.051Z,54.50
2022-08-11T08:36:03.036Z,54.02
2022-08-11T08:37:03.021Z,54.02
2022-08-11T08:38:03.002Z,54.99
2022-08-11T08:39:02.990Z,54.90
2022-08-11T08:40:02.975Z,54.90
2022-08-11T08:41:02.956Z,54.60
2022-08-11T08:42:02.939Z,54.31
2022-08-11T08:43:02.924Z,54.80
2022-08-11T08:44:27.817Z,54.70
2022-08-11T08:45:02.916Z,54.31
2022-08-11T08:46:02.875Z,53.73
2022-08-11T08:47:02.861Z,53.53
2022-08-11T08:48:02.846Z,54.14
2022-08-11T08:49:02.829Z,54.34
2022-08-11T08:50:02.814Z,54.53
2022-08-11T08:51:02.801Z,53.47
2022-08-11T08:52:29.655Z,54.14
2022-08-11T08:53:02.766Z,53.95
2022-08-11T08:54:02.749Z,53.08
2022-08-11T08:55:02.736Z,52.88
2022-08-11T08:56:02.720Z,52.59
2022-08-11T08:57:02.705Z,53.10
2022-08-11T08:58:02.688Z,53.30
2022-08-11T08:59:02.675Z,53.10
2022-08-11T09:00:02.658Z,52.72
2022-08-11T09:01:02.675Z,52.91
2022-08-11T09:02:02.627Z,52.81
2022-08-11T09:03:17.199Z,52.23
2022-08-11T09:04:10.567Z,52.42
2022-08-11T09:05:02.590Z,52.42
2022-08-11T09:06:02.566Z,53.39
2022-08-11T09:07:02.556Z,53.03
2022-08-11T09:08:02.539Z,53.13
2022-08-11T09:09:02.523Z,53.22
2022-08-11T09:10:02.505Z,52.55
2022-08-11T09:11:02.492Z,51.31
2022-08-11T09:12:02.475Z,51.50
2022-08-11T09:13:02.461Z,50.24
2022-08-11T09:14:03.295Z,50.73
2022-08-11T09:15:02.438Z,50.63
2022-08-11T09:16:02.418Z,51.40
2022-08-11T09:17:02.403Z,49.76
2022-08-11T09:18:02.388Z,50.34
2022-08-11T09:19:02.373Z,50.53
2022-08-11T09:20:02.447Z,51.79
2022-08-11T09:21:02.342Z,50.75
2022-08-11T09:22:02.328Z,49.76
2022-08-11T09:24:06.738Z,48.71
2022-08-11T09:25:02.283Z,49.10
2022-08-11T09:26:02.271Z,49.49
2022-08-11T09:27:02.253Z,48.88
2022-08-11T09:28:02.239Z,49.78
2022-08-11T09:29:02.223Z,49.58
2022-08-11T09:30:02.208Z,49.10
2022-08-11T09:31:02.208Z,48.80
2022-08-11T09:32:02.186Z,48.61
2022-08-11T09:33:02.169Z,49.10
2022-08-11T09:34:02.149Z,48.51
2022-08-11T09:35:02.137Z,49.19
2022-08-11T09:36:02.122Z,48.71
2022-08-11T09:37:02.107Z,49.10
2022-08-11T09:38:02.680Z,48.90
2022-08-11T09:39:02.079Z,48.71
2022-08-11T09:40:02.076Z,49.87
2022-08-11T09:41:02.048Z,49.61
2022-08-11T09:42:03.498Z,48.83
2022-08-11T09:43:02.021Z,48.83
2022-08-11T09:44:04.157Z,48.15
2022-08-11T09:45:02.101Z,47.96
2022-08-11T09:46:01.980Z,47.86
2022-08-11T09:47:01.966Z,47.76
2022-08-11T09:48:01.951Z,47.88
2022-08-11T09:49:01.937Z,47.39
2022-08-11T09:50:02.157Z,45.74
2022-08-11T09:51:01.907Z,45.54
2022-08-11T09:52:05.144Z,45.23
2022-08-11T09:53:34.775Z,45.45
2022-08-11T09:54:03.520Z,45.74
2022-08-11T09:55:01.852Z,44.86
2022-08-11T09:56:01.836Z,45.74
2022-08-11T09:57:05.186Z,43.60
2022-08-11T09:58:01.805Z,44.38
2022-08-11T09:59:01.806Z,44.67
2022-08-11T10:00:12.648Z,44.38
2022-08-11T10:01:01.856Z,42.63
2022-08-11T10:02:01.751Z,42.82
2022-08-11T10:03:01.740Z,42.72
2022-08-11T10:04:01.721Z,43.21
2022-08-11T10:05:01.713Z,43.52
2022-08-11T10:06:07.307Z,43.71
2022-08-11T10:07:01.683Z,43.43
2022-08-11T10:08:01.669Z,42.94
2022-08-11T10:09:01.659Z,43.23
2022-08-11T10:10:01.640Z,43.04
2022-08-11T10:11:01.627Z,42.35
2022-08-11T10:12:01.609Z,41.57
2022-08-11T10:13:01.610Z,41.77
2022-08-11T10:14:33.922Z,41.77
2022-08-11T10:15:01.568Z,42.45
2022-08-11T10:16:16.309Z,42.66
2022-08-11T10:17:01.540Z,41.79
2022-08-11T10:18:01.529Z,41.57
2022-08-11T10:19:01.515Z,41.77
2022-08-11T10:20:04.782Z,42.55
2022-08-11T10:21:01.487Z,41.77
2022-08-11T10:22:01.468Z,41.67
2022-08-11T10:23:01.459Z,41.67
2022-08-11T10:24:05.746Z,40.89
2022-08-11T10:25:01.430Z,41.57
2022-08-11T10:26:01.416Z,42.45
2022-08-11T10:27:01.406Z,41.96
2022-08-11T10:28:28.517Z,41.48
2022-08-11T10:29:12.552Z,40.91
2022-08-11T10:30:01.365Z,41.48
2022-08-11T10:31:01.350Z,40.89
2022-08-11T10:32:02.076Z,42.25
2022-08-11T10:33:01.320Z,42.45
2022-08-11T10:34:01.632Z,41.96
2022-08-11T10:35:01.303Z,41.79
2022-08-11T10:36:01.282Z,42.38
2022-08-11T10:37:01.265Z,41.77
2022-08-11T10:38:08.587Z,42.47
2022-08-11T10:39:01.236Z,41.69
2022-08-11T10:40:01.220Z,40.93
2022-08-11T10:41:01.210Z,40.91
2022-08-11T10:42:06.111Z,41.91
2022-08-11T10:43:01.492Z,41.71
2022-08-11T10:44:03.697Z,41.91
2022-08-11T10:45:01.158Z,41.13
2022-08-11T10:46:01.141Z,40.64
2022-08-11T10:47:01.126Z,40.16
2022-08-11T10:48:01.113Z,40.55
2022-08-11T10:49:01.105Z,41.22
2022-08-11T10:50:01.089Z,40.55
2022-08-11T10:51:01.075Z,40.13
2022-08-11T10:52:01.067Z,40.45
2022-08-11T10:53:01.046Z,40.35
2022-08-11T10:54:01.034Z,40.16
2022-08-11T10:55:01.022Z,41.03
2022-08-11T10:56:01.030Z,40.83
2022-08-11T10:57:00.989Z,40.45
2022-08-11T10:58:04.313Z,39.28
2022-08-11T10:59:03.990Z,40.16
2022-08-11T11:00:00.950Z,39.47
2022-08-11T11:01:00.982Z,40.06
2022-08-11T11:02:00.926Z,39.20
2022-08-11T11:03:16.846Z,39.18
2022-08-11T11:04:00.907Z,40.06
2022-08-11T11:05:00.883Z,40.17
2022-08-11T11:06:27.849Z,39.57
2022-08-11T11:07:00.855Z,39.08
2022-08-11T11:08:00.844Z,38.69
2022-08-11T11:09:04.069Z,39.28
2022-08-11T11:10:00.814Z,39.08
2022-08-11T11:11:00.801Z,38.30
2022-08-11T11:12:00.795Z,39.08
2022-08-11T11:13:00.784Z,39.08
2022-08-11T11:14:00.766Z,39.18
2022-08-11T11:15:00.747Z,38.40
2022-08-11T11:16:00.737Z,39.20
2022-08-11T11:17:00.724Z,38.49
2022-08-11T11:18:00.709Z,38.10
2022-08-11T11:19:01.453Z,40.25
2022-08-11T11:20:00.682Z,39.28
2022-08-11T11:21:00.677Z,39.47
2022-08-11T11:22:00.654Z,39.18
2022-08-11T11:23:00.646Z,38.59
2022-08-11T11:24:00.630Z,38.40
2022-08-11T11:25:00.627Z,38.79
2022-08-11T11:26:00.606Z,38.89
2022-08-11T11:27:00.591Z,38.98
2022-08-11T11:28:00.586Z,38.61
2022-08-11T11:29:00.568Z,38.51
2022-08-11T11:30:00.553Z,37.63
2022-08-11T11:31:00.546Z,38.22
2022-08-11T11:32:00.526Z,38.81
2022-08-11T11:33:00.521Z,38.81
2022-08-11T11:34:12.383Z,39.39
2022-08-11T11:35:00.488Z,41.56
2022-08-11T11:36:00.477Z,37.77
2022-08-11T11:37:00.468Z,37.96
2022-08-11T11:38:04.031Z,38.77
2022-08-11T11:39:00.436Z,36.72
2022-08-11T11:40:00.428Z,36.91
2022-08-11T11:41:00.412Z,37.70
2022-08-11T11:42:00.398Z,36.21
2022-08-11T11:43:00.406Z,38.28
2022-08-11T11:44:01.494Z,36.52
2022-08-11T11:45:01.439Z,35.66
2022-08-11T11:46:00.355Z,36.54
2022-08-11T11:47:00.338Z,36.26
2022-08-11T11:48:00.322Z,35.77
2022-08-11T11:49:00.310Z,35.07
2022-08-11T11:50:00.300Z,35.36
2022-08-11T11:51:00.295Z,35.74
2022-08-11T11:52:00.276Z,35.84
2022-08-11T11:53:00.264Z,36.52
2022-08-11T11:54:00.250Z,36.13
2022-08-11T11:55:00.247Z,36.11
2022-08-11T11:56:00.227Z,36.21
2022-08-11T11:57:00.216Z,36.49
2022-08-11T11:58:02.624Z,37.27
2022-08-11T11:59:00.194Z,37.55
2022-08-11T12:00:00.207Z,37.07
2022-08-11T12:01:00.170Z,38.43
2022-08-11T12:02:00.156Z,38.04
2022-08-11T12:03:00.238Z,37.96
2022-08-11T12:04:00.136Z,37.09
2022-08-11T12:05:00.121Z,37.27
2022-08-11T12:06:00.108Z,38.04
2022-08-11T12:07:00.099Z,37.38
2022-08-11T12:08:12.475Z,36.23
2022-08-11T12:09:00.082Z,36.04
2022-08-11T12:10:00.073Z,35.84
2022-08-11T12:11:00.050Z,36.73
2022-08-11T12:12:00.042Z,35.46
2022-08-11T12:13:00.026Z,35.55
2022-08-11T12:14:00.013Z,35.16
2022-08-11T12:15:00.003Z,34.67
2022-08-11T12:16:31.802Z,34.57
2022-08-11T12:16:59.977Z,35.72
2022-08-11T12:17:59.968Z,35.43
2022-08-11T12:18:59.963Z,35.92
2022-08-11T12:19:59.946Z,36.21
2022-08-11T12:20:59.930Z,35.72
2022-08-11T12:22:00.783Z,36.21
2022-08-11T12:22:59.912Z,36.31
2022-08-11T12:24:04.071Z,36.11
2022-08-11T12:24:59.885Z,35.43
2022-08-11T12:26:23.418Z,35.82
2022-08-11T12:27:15.801Z,35.72
2022-08-11T12:27:59.850Z,35.43
2022-08-11T12:28:59.836Z,35.80
2022-08-11T12:29:59.822Z,35.82
2022-08-11T12:30:59.812Z,36.21
2022-08-11T12:31:59.800Z,36.43
2022-08-11T12:32:59.788Z,35.64
2022-08-11T12:33:59.777Z,35.94
2022-08-11T12:34:59.770Z,35.74
2022-08-11T12:36:00.893Z,35.84
2022-08-11T12:36:59.742Z,36.23
2022-08-11T12:38:03.810Z,36.43
2022-08-11T12:38:59.720Z,35.84
2022-08-11T12:40:16.866Z,35.46
2022-08-11T12:41:16.297Z,35.17
2022-08-11T12:41:59.737Z,35.87
2022-08-11T12:42:59.674Z,34.21
2022-08-11T12:43:59.661Z,34.01
2022-08-11T12:44:59.649Z,34.91
2022-08-11T12:45:59.638Z,35.01
2022-08-11T12:46:59.631Z,34.52
2022-08-11T12:48:37.831Z,33.25
2022-08-11T12:49:02.159Z,33.23
2022-08-11T12:49:59.593Z,34.29
2022-08-11T12:50:59.577Z,34.68
2022-08-11T12:52:11.466Z,34.08
2022-08-11T12:52:59.559Z,34.77
2022-08-11T12:53:59.547Z,34.77